Time;durP1;ratioP1;P1;durP2;ratioP2;P2;SDS_P1;SDS_P2;PMS_P1;PMS_P2;Temp;Humidity;BMP_temperature;BMP_pressure;BME280_temperature;BME280_humidity;BME280_pressure;Samples;Min_cycle;Max_cycle;Signal;HPM_P1;HPM_P2
2022/02/02 00:45:42;;;;;;;7.57;7.37;;;20.20;52.20;;;;;;5014030;28;20884;-44
2022/02/02 00:48:10;;;;;;;8.47;7.77;;;20.10;52.20;;;;;;5032097;28;20441;-44
2022/02/02 00:50:37;;;;;;;8.53;8.07;;;20.00;52.30;;;;;;5031953;28;20449;-44
2022/02/02 00:53:04;;;;;;;8.63;8.23;;;20.00;52.50;;;;;;5032005;28;20455;-44
2022/02/02 00:55:32;;;;;;;7.03;6.80;;;19.90;52.60;;;;;;5018872;28;20470;-44
2022/02/02 00:57:59;;;;;;;9.33;8.83;;;19.80;52.70;;;;;;5011490;28;20910;-44
2022/02/02 01:00:26;;;;;;;8.37;8.07;;;19.80;52.90;;;;;;5012079;28;20456;-44
2022/02/02 01:02:54;;;;;;;8.60;8.20;;;19.70;52.90;;;;;;5012229;28;20464;-44
2022/02/02 01:05:21;;;;;;;7.83;7.43;;;19.70;53.10;;;;;;5022821;28;20446;-44
2022/02/02 01:10:41;;;;;;;8.63;7.93;;;19.60;53.20;;;;;;5031261;28;20436;-50
2022/02/02 01:13:24;;;;;;;7.83;7.50;;;19.60;53.40;;;;;;5031821;28;20797;-51
2022/02/02 01:16:44;;;;;;;7.97;7.67;;;19.50;53.50;;;;;;5016305;28;20818;-48
2022/02/02 01:19:02;;;;;;;9.17;8.67;;;19.40;53.70;;;;;;5011827;28;20537;-48
2022/02/02 01:21:32;;;;;;;8.03;7.60;;;19.40;53.90;;;;;;5011851;28;20468;-48
2022/02/02 01:29:31;;;;;;;7.73;7.43;;;19.20;54.20;;;;;;5031655;28;20793;-47
2022/02/02 01:31:57;;;;;;;8.20;7.90;;;19.10;54.30;;;;;;5031492;28;20465;-47
2022/02/02 01:34:25;;;;;;;7.97;7.57;;;19.10;54.60;;;;;;5028416;28;20449;-44
2022/02/02 01:36:52;;;;;;;8.10;7.70;;;19.00;54.80;;;;;;5011411;28;20489;-48
2022/02/02 01:39:24;;;;;;;8.00;7.60;;;18.90;55.00;;;;;;5011788;28;20449;-47
2022/02/02 01:41:50;;;;;;;8.70;8.10;;;18.90;55.30;;;;;;5011771;28;20967;-45
2022/02/02 01:44:25;;;;;;;8.40;7.90;;;18.90;55.50;;;;;;5013292;28;20537;-46
2022/02/02 01:46:53;;;;;;;7.97;7.33;;;18.80;55.60;;;;;;5031232;28;20775;-46
2022/02/02 01:52:35;;;;;;;8.53;8.13;;;18.70;56.10;;;;;;5031384;28;20532;-45
2022/02/02 01:55:05;;;;;;;7.87;7.37;;;18.70;56.30;;;;;;5023704;28;20474;-48
2022/02/02 02:00:14;;;;;;;8.17;7.67;;;18.60;56.90;;;;;;5007898;28;20440;-49
2022/02/02 02:02:41;;;;;;;7.90;7.40;;;18.60;57.00;;;;;;5011547;28;20462;-45
2022/02/02 02:05:08;;;;;;;7.67;7.17;;;18.60;57.10;;;;;;5019170;28;20452;-49
2022/02/02 02:07:37;;;;;;;7.60;7.30;;;18.60;57.20;;;;;;5031838;28;20773;-43
2022/02/02 02:10:05;;;;;;;7.27;6.90;;;18.60;57.20;;;;;;5034979;28;20448;-45
2022/02/02 02:12:40;;;;;;;7.83;7.40;;;18.50;57.10;;;;;;5034897;28;20908;-46
2022/02/02 02:15:10;;;;;;;8.13;7.53;;;18.50;57.30;;;;;;5027041;28;20449;-44
2022/02/02 02:17:37;;;;;;;7.83;7.43;;;18.50;57.20;;;;;;5014856;28;20486;-43
2022/02/02 02:20:05;;;;;;;8.20;7.70;;;18.50;57.20;;;;;;5016075;28;20818;-44
2022/02/02 02:22:37;;;;;;;7.83;7.43;;;18.50;57.20;;;;;;5015088;28;20997;-44
2022/02/02 02:25:04;;;;;;;7.80;7.40;;;18.50;57.20;;;;;;5021601;28;20452;-46
2022/02/02 02:27:31;;;;;;;7.83;7.30;;;18.50;57.20;;;;;;5034570;28;20464;-43
2022/02/02 02:30:04;;;;;;;7.73;7.40;;;18.50;57.30;;;;;;5034640;28;20449;-45
2022/02/02 02:32:56;;;;;;;9.13;8.50;;;18.40;57.30;;;;;;5034599;28;20556;-44
2022/02/02 02:35:58;;;;;;;8.07;7.50;;;18.50;57.40;;;;;;5024955;28;20817;-44
2022/02/02 02:57:48;;;;;;;8.60;8.17;;;18.20;58.00;;;;;;5068697;28;20469;-46
2022/02/02 03:00:35;;;;;;;7.43;7.13;;;18.10;58.10;;;;;;5068675;28;20447;-46
2022/02/02 03:29:40;;;;;;;8.20;7.60;;;17.90;59.10;;;;;;5048515;28;20416;-46
2022/02/02 03:30:56;;;;;;;8.50;7.87;;;17.90;59.30;;;;;;5068148;28;21049;-49
2022/02/02 03:55:39;;;;;;;7.30;6.90;;;17.60;60.40;;;;;;5054314;28;20470;-44
2022/02/02 03:58:23;;;;;;;8.50;8.10;;;17.70;60.80;;;;;;5034509;28;20807;-46
2022/02/02 04:03:50;;;;;;;8.40;7.60;;;17.70;62.30;;;;;;5034393;28;20417;-50
2022/02/02 04:06:20;;;;;;;9.90;8.97;;;17.70;62.30;;;;;;5038864;28;20804;-46
2022/02/02 04:08:48;;;;;;;8.10;7.70;;;17.70;62.40;;;;;;5054198;28;20914;-45
2022/02/02 04:11:20;;;;;;;8.77;8.17;;;17.60;62.70;;;;;;5054040;28;20561;-49
2022/02/02 04:39:04;;;;;;;8.03;7.40;;;17.60;65.60;;;;;;5033877;28;20435;-45
2022/02/02 04:55:22;;;;;;;8.40;7.93;;;17.70;66.40;;;;;;5032556;28;20449;-46
2022/02/02 04:58:06;;;;;;;9.03;8.53;;;17.60;66.60;;;;;;5033275;28;20788;-47
2022/02/02 05:06:13;;;;;;;9.03;8.53;;;17.60;67.00;;;;;;5038516;28;20511;-46
2022/02/02 05:08:48;;;;;;;8.17;7.57;;;17.50;67.50;;;;;;5053100;28;20447;-45
2022/02/02 05:11:32;;;;;;;8.70;8.20;;;17.50;67.70;;;;;;5052789;28;20992;-47
2022/02/02 05:17:08;;;;;;;8.17;7.57;;;17.60;67.70;;;;;;5032669;28;20432;-45
2022/02/02 05:20:04;;;;;;;8.30;7.90;;;17.50;68.10;;;;;;5032937;28;20524;-45
2022/02/02 05:50:14;;;;;;;8.10;7.47;;;17.50;69.90;;;;;;5052188;28;20475;-45
2022/02/02 05:52:44;;;;;;;8.07;7.70;;;18.20;70.70;;;;;;5051105;28;20552;-45
2022/02/02 05:55:11;;;;;;;8.50;7.93;;;18.90;66.30;;;;;;5032005;28;20449;-45
2022/02/02 05:57:41;;;;;;;7.93;7.43;;;19.20;63.50;;;;;;5040051;28;20452;-46
2022/02/02 06:00:09;;;;;;;7.57;7.20;;;19.50;61.80;;;;;;5039927;28;21217;-47
2022/02/02 06:02:39;;;;;;;8.37;7.90;;;19.60;60.40;;;;;;5039498;28;20482;-46
2022/02/02 06:05:08;;;;;;;9.23;8.63;;;19.80;59.70;;;;;;5020192;28;20868;-45
2022/02/02 06:07:36;;;;;;;9.00;8.70;;;19.90;59.60;;;;;;5019918;28;20507;-46
2022/02/02 06:10:05;;;;;;;9.07;8.50;;;20.00;59.80;;;;;;5019888;28;21014;-46
2022/02/02 06:12:33;;;;;;;9.17;8.67;;;20.10;59.90;;;;;;5021345;28;20482;-45
2022/02/02 06:15:08;;;;;;;8.60;8.00;;;20.20;59.90;;;;;;5031400;28;20449;-47
2022/02/02 06:17:39;;;;;;;8.38;7.80;;;20.20;59.60;;;;;;5019100;28;20445;-47
2022/02/02 06:20:07;;;;;;;9.17;8.57;;;20.10;60.40;;;;;;5020113;28;20679;-47
2022/02/02 06:22:43;;;;;;;8.17;7.77;;;20.30;60.10;;;;;;5019717;28;20476;-46
2022/02/02 06:25:21;;;;;;;9.70;9.30;;;20.30;59.90;;;;;;5028448;28;20451;-44
2022/02/02 06:27:56;;;;;;;9.60;9.10;;;20.30;60.20;;;;;;5039745;28;20479;-48
2022/02/02 06:30:26;;;;;;;8.73;8.37;;;20.40;60.40;;;;;;5039837;28;20494;-45
2022/02/02 06:32:57;;;;;;;8.50;8.17;;;20.30;60.20;;;;;;5039540;28;20451;-46
2022/02/02 06:35:24;;;;;;;9.00;8.60;;;20.30;60.00;;;;;;5028824;28;20902;-49
2022/02/02 06:37:51;;;;;;;7.40;6.95;;;20.30;60.20;;;;;;5035599;28;20450;-44
2022/02/02 06:40:20;;;;;;;9.60;8.80;;;20.30;60.10;;;;;;5024483;28;20457;-45
2022/02/02 06:42:47;;;;;;;8.70;8.30;;;20.40;60.10;;;;;;5019746;28;20484;-44
2022/02/02 06:45:14;;;;;;;9.10;8.80;;;20.40;60.00;;;;;;5019833;28;21017;-48
2022/02/02 06:47:42;;;;;;;8.03;7.43;;;20.40;60.10;;;;;;5018538;28;20453;-46
2022/02/02 06:50:11;;;;;;;9.10;8.57;;;20.30;60.00;;;;;;5027139;28;20477;-49
2022/02/02 06:52:44;;;;;;;7.30;6.90;;;20.40;60.10;;;;;;5019507;28;20563;-46
2022/02/02 06:55:22;;;;;;;8.17;7.50;;;20.40;60.20;;;;;;5019564;28;20453;-46
2022/02/02 06:58:07;;;;;;;8.20;7.60;;;20.40;60.60;;;;;;5019797;28;20445;-44
2022/02/02 07:00:44;;;;;;;10.13;9.13;;;20.30;60.70;;;;;;5034175;28;20932;-46
2022/02/02 07:03:25;;;;;;;10.83;10.30;;;20.30;60.70;;;;;;5039264;28;20479;-45
2022/02/02 07:06:07;;;;;;;9.67;9.17;;;20.30;61.10;;;;;;5040160;28;20444;-48
2022/02/02 07:08:47;;;;;;;10.10;9.50;;;20.30;61.30;;;;;;5027592;28;20520;-46
2022/02/02 07:11:23;;;;;;;9.93;9.53;;;20.20;61.30;;;;;;5019506;28;20575;-44
2022/02/02 07:14:03;;;;;;;10.30;9.70;;;20.20;61.30;;;;;;5019214;28;20534;-46
2022/02/02 07:16:42;;;;;;;11.77;10.80;;;20.20;61.60;;;;;;5020621;28;21171;-49
2022/02/02 07:19:22;;;;;;;9.90;9.40;;;20.30;62.00;;;;;;5019505;28;20453;-50
2022/02/02 07:22:06;;;;;;;9.60;9.07;;;20.60;62.50;;;;;;5019508;28;20556;-48
2022/02/02 07:30:20;;;;;;;8.87;8.27;;;21.60;59.70;;;;;;4997871;28;20473;-47
2022/02/02 07:32:55;;;;;;;9.47;8.87;;;22.20;58.40;;;;;;5023260;28;20472;-48
2022/02/02 07:35:34;;;;;;;9.97;9.40;;;22.40;57.10;;;;;;5042569;28;20571;-50
2022/02/02 07:38:09;;;;;;;10.20;9.70;;;22.50;56.40;;;;;;5043089;28;20459;-49
2022/02/02 07:40:38;;;;;;;10.23;9.73;;;22.60;55.90;;;;;;5042522;28;20487;-49
2022/02/02 07:43:05;;;;;;;11.83;11.23;;;22.60;55.60;;;;;;5040170;28;21159;-48
2022/02/02 07:45:36;;;;;;;11.40;10.80;;;22.60;55.20;;;;;;5022713;28;20447;-49
2022/02/02 07:48:07;;;;;;;10.07;9.57;;;22.60;55.50;;;;;;5022723;28;20765;-48
2022/02/02 07:50:36;;;;;;;10.97;10.57;;;22.60;54.70;;;;;;5022555;28;20578;-48
2022/02/02 07:53:08;;;;;;;10.23;9.83;;;22.60;54.70;;;;;;5037835;28;20476;-49
2022/02/02 07:55:37;;;;;;;11.70;11.20;;;22.80;54.60;;;;;;5042229;28;20454;-49
2022/02/02 07:58:05;;;;;;;10.77;10.27;;;23.10;54.00;;;;;;5042512;28;20459;-48
2022/02/02 08:00:32;;;;;;;11.23;10.53;;;23.30;53.70;;;;;;5042122;28;20539;-49
2022/02/02 08:03:06;;;;;;;10.40;9.80;;;23.50;53.40;;;;;;5026186;28;20460;-48
2022/02/02 08:05:40;;;;;;;11.80;11.10;;;23.60;52.70;;;;;;5022208;28;20209;-47
2022/02/02 08:08:15;;;;;;;10.90;10.30;;;23.70;52.10;;;;;;5022632;28;20464;-48
2022/02/02 08:10:43;;;;;;;10.67;10.23;;;23.70;52.00;;;;;;5022273;28;20924;-47
2022/02/02 08:13:16;;;;;;;10.03;9.63;;;23.70;51.90;;;;;;5038548;28;20845;-47
2022/02/02 08:15:43;;;;;;;10.03;9.57;;;23.70;51.90;;;;;;5042150;28;20449;-49
2022/02/02 08:18:10;;;;;;;10.20;9.80;;;23.70;51.60;;;;;;5041869;28;20459;-46
2022/02/02 08:20:38;;;;;;;12.27;11.77;;;23.70;51.70;;;;;;5041799;28;20446;-47
2022/02/02 08:23:05;;;;;;;9.80;9.37;;;23.60;51.70;;;;;;5026725;28;20767;-47
2022/02/02 08:25:33;;;;;;;11.43;10.90;;;23.60;51.70;;;;;;5021544;28;20449;-46
2022/02/02 08:28:04;;;;;;;12.37;11.67;;;23.60;51.40;;;;;;5039086;28;20559;-46
2022/02/02 08:30:31;;;;;;;10.75;10.15;;;23.60;51.20;;;;;;5039485;28;20869;-47
2022/02/02 08:33:02;;;;;;;10.63;9.80;;;24.00;51.30;;;;;;5021816;28;20202;-46
2022/02/02 08:35:34;;;;;;;10.03;9.53;;;24.10;50.60;;;;;;5021551;28;20445;-47
2022/02/02 08:38:10;;;;;;;7.87;7.57;;;24.10;50.40;;;;;;5034328;28;20933;-46
2022/02/02 08:40:42;;;;;;;11.10;10.60;;;24.20;50.30;;;;;;5021732;28;20467;-48
2022/02/02 08:43:15;;;;;;;11.37;10.67;;;24.20;50.00;;;;;;5021590;28;20842;-47
2022/02/02 08:45:47;;;;;;;12.30;11.63;;;24.10;49.90;;;;;;5021356;28;20556;-47
2022/02/02 08:48:21;;;;;;;11.40;10.80;;;24.00;49.80;;;;;;5021090;28;20449;-48
2022/02/02 08:50:53;;;;;;;11.70;11.07;;;24.00;49.80;;;;;;5021415;28;20495;-47
2022/02/02 08:53:36;;;;;;;11.03;10.63;;;24.00;49.90;;;;;;5022454;28;20903;-45
2022/02/02 08:56:34;;;;;;;10.10;9.40;;;24.20;50.40;;;;;;5020080;28;20449;-46
2022/02/02 08:59:08;;;;;;;10.90;10.40;;;24.40;49.80;;;;;;5021352;28;20261;-44
2022/02/02 09:01:38;;;;;;;11.23;10.73;;;24.60;49.40;;;;;;5021193;28;20563;-44
2022/02/02 09:06:53;;;;;;;11.83;11.23;;;24.50;49.10;;;;;;5029496;28;20443;-46
2022/02/02 09:09:40;;;;;;;11.37;10.37;;;24.50;48.90;;;;;;5041113;28;20467;-44
2022/02/02 09:20:51;;;;;;;11.88;11.25;;;24.90;48.70;;;;;;5020757;28;20511;-42
2022/02/02 09:23:32;;;;;;;11.00;10.40;;;24.90;48.00;;;;;;5020649;28;21349;-44
2022/02/02 09:32:10;;;;;;;10.60;10.10;;;24.80;48.00;;;;;;5039328;28;20454;-55
2022/02/02 09:34:38;;;;;;;12.67;12.10;;;24.90;48.10;;;;;;5039166;28;20539;-43
2022/02/02 09:37:07;;;;;;;11.93;11.20;;;24.90;47.70;;;;;;5023553;28;20449;-42
2022/02/02 09:39:43;;;;;;;12.47;11.87;;;24.70;47.60;;;;;;5039460;28;20492;-41
2022/02/02 09:42:12;;;;;;;9.50;8.82;;;24.60;47.80;;;;;;5039075;28;20442;-43
2022/02/02 09:44:42;;;;;;;11.57;11.07;;;24.70;48.20;;;;;;5040269;28;20201;-41
2022/02/02 09:47:19;;;;;;;11.30;10.80;;;25.00;48.10;;;;;;5037469;28;20456;-42
2022/02/02 09:49:55;;;;;;;12.30;11.73;;;25.20;47.80;;;;;;5019627;28;20759;-44
2022/02/02 09:52:24;;;;;;;10.60;10.10;;;25.20;47.30;;;;;;5020110;28;20646;-42
2022/02/02 09:55:01;;;;;;;12.20;11.50;;;25.20;47.20;;;;;;5020001;28;20449;-42
2022/02/02 10:00:33;;;;;;;23.45;22.40;;;25.00;47.30;;;;;;5019390;28;20445;-47
2022/02/02 10:03:21;;;;;;;27.80;26.80;;;25.00;47.50;;;;;;5020001;28;20214;-44
2022/02/02 10:06:00;;;;;;;27.77;26.50;;;25.20;47.40;;;;;;5019925;28;20448;-46
2022/02/02 10:08:59;;;;;;;25.77;24.77;;;25.30;47.10;;;;;;5032833;28;20488;-49
2022/02/02 10:11:53;;;;;;;26.33;25.13;;;25.40;46.80;;;;;;5039662;28;21020;-45
2022/02/02 10:14:49;;;;;;;30.13;28.70;;;25.40;46.60;;;;;;5039807;28;20455;-43
2022/02/02 10:17:16;;;;;;;26.63;25.43;;;25.40;46.50;;;;;;5023441;28;20460;-43
2022/02/02 10:19:42;;;;;;;29.80;28.50;;;25.40;46.40;;;;;;5020166;28;20461;-44
2022/02/02 10:22:26;;;;;;;29.10;27.80;;;25.30;46.40;;;;;;5019593;28;21005;-45
2022/02/02 10:24:55;;;;;;;30.00;28.40;;;25.30;46.70;;;;;;5019880;28;20581;-45
2022/02/02 10:27:23;;;;;;;28.93;27.53;;;25.30;46.70;;;;;;5036208;28;20452;-47
2022/02/02 10:29:51;;;;;;;25.80;24.50;;;25.20;46.50;;;;;;5038469;28;20447;-47
2022/02/02 10:32:37;;;;;;;30.23;28.83;;;25.40;46.50;;;;;;5028123;28;20806;-42
2022/02/02 10:35:05;;;;;;;30.50;28.87;;;25.50;46.30;;;;;;5019903;28;20836;-43
2022/02/02 10:37:33;;;;;;;27.93;26.73;;;25.50;46.30;;;;;;5019879;28;20903;-47
2022/02/02 10:40:00;;;;;;;25.40;24.10;;;25.50;46.20;;;;;;5019165;28;20445;-47
2022/02/02 10:42:35;;;;;;;27.90;26.70;;;25.40;46.00;;;;;;5030935;28;21064;-44
2022/02/02 10:48:03;;;;;;;30.97;29.10;;;25.40;46.20;;;;;;5077137;27;20694;-47
2022/02/02 10:50:36;;;;;;;28.63;26.97;;;25.30;45.60;;;;;;5076879;28;20450;-42
2022/02/02 10:56:18;;;;;;;38.23;35.20;;;25.10;46.70;;;;;;5058171;28;20440;-45
2022/02/02 11:01:44;;;;;;;36.07;33.33;;;25.20;48.00;;;;;;5016892;28;20519;-48
2022/02/02 11:07:02;;;;;;;34.97;32.33;;;25.70;47.60;;;;;;5017267;28;20519;-45
2022/02/02 11:09:30;;;;;;;33.60;31.30;;;25.70;47.30;;;;;;5056312;28;21049;-43
2022/02/02 11:11:58;;;;;;;35.38;32.97;;;25.80;47.10;;;;;;5055977;28;20450;-50
2022/02/02 11:14:35;;;;;;;35.37;32.87;;;25.70;46.50;;;;;;5056554;28;20347;-43
2022/02/02 11:17:07;;;;;;;35.00;33.00;;;25.60;46.60;;;;;;5066525;28;20478;-44
2022/02/02 11:19:38;;;;;;;36.43;34.10;;;25.50;46.70;;;;;;5076860;28;20464;-44
2022/02/02 11:22:31;;;;;;;35.70;33.20;;;25.50;47.00;;;;;;5076207;28;21296;-45
2022/02/02 11:25:00;;;;;;;42.50;39.20;;;25.50;47.30;;;;;;5056293;28;20447;-42
2022/02/02 11:27:36;;;;;;;37.28;33.67;;;25.70;46.70;;;;;;5054930;28;20455;-43
2022/02/02 11:30:06;;;;;;;42.33;38.73;;;25.90;46.50;;;;;;5056308;28;20208;-44
2022/02/02 11:32:45;;;;;;;39.20;35.93;;;26.00;46.00;;;;;;5056302;28;20471;-44
2022/02/02 11:35:36;;;;;;;44.63;40.90;;;26.10;45.90;;;;;;5055869;28;20448;-49
2022/02/02 11:38:10;;;;;;;41.57;37.73;;;26.30;45.60;;;;;;5055815;28;20466;-42
2022/02/02 11:41:17;;;;;;;40.50;37.40;;;26.10;45.10;;;;;;5056033;28;21008;-42
2022/02/02 11:43:58;;;;;;;38.43;35.63;;;26.00;45.50;;;;;;5055706;28;20609;-43
2022/02/02 11:46:51;;;;;;;40.67;37.43;;;26.00;45.60;;;;;;5055448;28;20575;-42
2022/02/02 11:49:29;;;;;;;37.90;34.80;;;26.10;45.30;;;;;;5056186;28;20462;-42
2022/02/02 11:52:01;;;;;;;40.53;37.40;;;26.20;45.60;;;;;;5055706;28;20986;-42
2022/02/02 11:54:49;;;;;;;38.27;34.97;;;26.40;45.30;;;;;;5055377;28;20474;-47
2022/02/02 11:57:20;;;;;;;42.47;39.10;;;26.80;45.20;;;;;;5053337;28;20453;-44
2022/02/02 11:59:58;;;;;;;42.20;38.70;;;27.50;44.20;;;;;;5042282;28;20460;-46
2022/02/02 12:02:38;;;;;;;37.77;34.70;;;27.50;43.20;;;;;;5042274;28;20511;-43
2022/02/02 12:05:13;;;;;;;36.83;34.20;;;27.10;43.30;;;;;;5042275;28;20554;-47
2022/02/02 12:08:08;;;;;;;39.40;36.20;;;26.80;43.80;;;;;;5042125;28;20493;-43
2022/02/02 12:10:52;;;;;;;38.33;35.73;;;26.70;44.20;;;;;;5041971;28;20531;-44
2022/02/02 12:19:21;;;;;;;39.10;36.47;;;27.70;43.30;;;;;;5041996;28;20504;-43
2022/02/02 12:36:01;;;;;;;35.83;33.53;;;28.00;42.40;;;;;;5041582;28;20745;-43
2022/02/02 12:49:45;;;;;;;39.63;35.60;;;29.00;41.00;;;;;;5019704;28;20424;-43
2022/02/02 12:57:46;;;;;;;34.47;31.97;;;28.80;40.70;;;;;;5018000;28;20432;-45
2022/02/02 13:00:21;;;;;;;31.50;29.40;;;29.00;40.80;;;;;;5041151;28;20452;-43
2022/02/02 13:02:49;;;;;;;34.87;32.40;;;28.90;40.40;;;;;;5040981;28;20536;-44
2022/02/02 13:05:17;;;;;;;36.47;33.97;;;28.60;40.50;;;;;;5040937;28;20877;-42
2022/02/02 13:07:43;;;;;;;32.63;30.50;;;28.40;40.80;;;;;;5041105;28;21264;-46
2022/02/02 13:10:12;;;;;;;32.80;30.60;;;28.40;41.20;;;;;;5040041;28;20851;-44
2022/02/02 13:12:42;;;;;;;34.27;32.07;;;28.50;41.00;;;;;;5040841;28;20578;-44
2022/02/02 13:15:21;;;;;;;32.30;30.47;;;28.50;40.80;;;;;;5061083;28;20914;-43
2022/02/02 13:18:00;;;;;;;34.77;32.20;;;28.40;41.40;;;;;;5060987;28;20447;-44
2022/02/02 13:20:40;;;;;;;30.73;28.80;;;28.20;40.80;;;;;;5060600;28;20593;-43
2022/02/02 13:23:15;;;;;;;32.13;30.17;;;28.10;41.00;;;;;;5055160;28;20452;-42
2022/02/02 13:25:44;;;;;;;31.33;29.33;;;28.10;41.20;;;;;;5051118;28;20973;-46
2022/02/02 13:28:12;;;;;;;32.17;30.17;;;28.00;41.30;;;;;;5060723;28;20490;-45
2022/02/02 13:30:46;;;;;;;33.10;31.10;;;28.00;41.40;;;;;;5060339;28;20493;-45
2022/02/02 13:33:18;;;;;;;31.17;29.17;;;27.90;41.30;;;;;;5046307;28;20569;-43
2022/02/02 13:35:58;;;;;;;32.20;30.10;;;27.90;41.60;;;;;;5058977;28;20455;-43
2022/02/02 13:39:03;;;;;;;31.77;29.97;;;28.20;41.60;;;;;;5060368;28;20466;-45
2022/02/02 13:44:43;;;;;;;31.03;29.13;;;28.40;41.10;;;;;;5040640;28;20517;-44
2022/02/02 13:47:55;;;;;;;31.20;29.50;;;28.50;41.10;;;;;;5039890;28;20484;-44
2022/02/02 13:50:42;;;;;;;31.23;29.60;;;28.50;41.10;;;;;;5042441;28;20896;-45
2022/02/02 13:56:31;;;;;;;29.30;27.40;;;28.50;40.70;;;;;;5040283;28;20529;-44
2022/02/02 13:59:17;;;;;;;29.27;27.60;;;28.40;40.80;;;;;;5040166;28;20505;-48
2022/02/02 14:01:50;;;;;;;31.00;29.30;;;28.40;40.90;;;;;;5040213;28;20486;-45
2022/02/02 14:04:30;;;;;;;29.13;27.30;;;28.30;41.00;;;;;;5040136;28;20820;-44
2022/02/02 14:07:12;;;;;;;26.38;24.77;;;28.30;40.90;;;;;;5039368;28;20782;-42
2022/02/02 14:09:57;;;;;;;29.40;27.47;;;28.50;40.70;;;;;;5039767;28;20235;-45
2022/02/02 14:31:05;;;;;;;29.10;27.50;;;28.20;40.60;;;;;;5039693;28;20550;-43
2022/02/02 14:31:45;;;;;;;27.43;25.93;;;28.30;40.90;;;;;;5052061;28;20468;-44
2022/02/02 14:34:12;;;;;;;27.87;26.27;;;28.20;40.80;;;;;;5042497;28;21066;-45
2022/02/02 14:36:41;;;;;;;26.30;25.00;;;28.10;40.80;;;;;;5039377;28;20479;-45
2022/02/02 14:39:15;;;;;;;26.57;25.17;;;28.00;41.00;;;;;;5039473;28;20942;-45
2022/02/02 14:41:46;;;;;;;27.00;25.40;;;27.90;41.20;;;;;;5047959;28;21294;-43
2022/02/02 14:44:18;;;;;;;27.33;25.90;;;27.70;41.10;;;;;;5039535;28;20444;-47
2022/02/02 14:46:53;;;;;;;27.73;26.10;;;27.60;41.00;;;;;;5045132;28;20816;-44
2022/02/02 14:49:25;;;;;;;27.80;26.30;;;27.50;41.40;;;;;;5059772;28;20915;-50
2022/02/02 14:52:01;;;;;;;26.33;25.03;;;27.40;41.50;;;;;;5059391;28;20478;-44
2022/02/02 14:54:45;;;;;;;26.70;25.30;;;27.40;41.50;;;;;;5059738;28;20549;-45
2022/02/02 15:27:51;;;;;;;26.10;24.57;;;26.80;43.00;;;;;;5049298;28;21278;-43
2022/02/02 15:30:26;;;;;;;29.00;27.50;;;26.80;43.00;;;;;;5057087;28;20528;-46
2022/02/02 15:32:56;;;;;;;29.60;27.97;;;26.80;42.90;;;;;;5056959;28;20519;-45
2022/02/02 15:35:23;;;;;;;27.63;26.10;;;26.80;42.90;;;;;;5056233;28;20505;-45
2022/02/02 15:37:57;;;;;;;27.53;26.13;;;27.00;42.90;;;;;;5056551;28;20451;-43
2022/02/02 15:40:30;;;;;;;25.40;24.10;;;27.10;42.70;;;;;;5056543;28;20459;-46
2022/02/02 15:43:10;;;;;;;25.20;23.90;;;27.10;42.50;;;;;;5056783;28;20558;-44
2022/02/02 16:00:07;;;;;;;27.47;26.17;;;26.70;42.60;;;;;;5056421;28;20473;-44
2022/02/02 16:03:01;;;;;;;25.57;24.37;;;26.70;42.80;;;;;;5056068;28;20463;-44
2022/02/02 16:05:30;;;;;;;25.90;24.60;;;26.80;43.00;;;;;;5056025;28;20531;-44
2022/02/02 16:08:04;;;;;;;25.97;24.77;;;26.90;42.90;;;;;;5055910;28;20487;-46
2022/02/02 16:10:43;;;;;;;26.50;25.20;;;26.90;43.40;;;;;;5055760;28;20941;-45
2022/02/02 16:13:26;;;;;;;25.47;24.07;;;26.80;42.90;;;;;;5056032;28;20889;-43
2022/02/02 16:15:56;;;;;;;25.00;23.60;;;26.80;42.90;;;;;;5055488;28;20448;-46
2022/02/02 16:18:35;;;;;;;25.47;24.17;;;26.70;42.90;;;;;;5049314;28;20937;-45
2022/02/02 16:32:27;;;;;;;25.23;24.03;;;26.60;43.50;;;;;;5042536;28;20506;-46
2022/02/02 16:35:20;;;;;;;23.90;22.43;;;26.60;43.30;;;;;;5042634;28;20449;-46
2022/02/02 16:37:48;;;;;;;23.30;22.20;;;26.70;43.30;;;;;;5042403;28;20443;-44
2022/02/02 16:40:20;;;;;;;26.03;24.63;;;26.60;43.30;;;;;;5042079;28;20460;-44
2022/02/02 16:43:09;;;;;;;25.63;24.43;;;26.60;43.30;;;;;;5042107;28;20472;-43
2022/02/02 16:45:39;;;;;;;24.60;23.40;;;26.50;43.30;;;;;;5042087;28;20459;-42
2022/02/02 16:48:06;;;;;;;23.37;22.00;;;26.50;43.50;;;;;;5041873;28;20963;-44
2022/02/02 16:50:36;;;;;;;23.60;22.30;;;26.40;43.50;;;;;;5042066;28;20542;-43
2022/02/02 16:53:08;;;;;;;23.17;21.97;;;26.40;43.60;;;;;;5042324;28;20522;-41
2022/02/02 16:55:41;;;;;;;23.33;22.00;;;26.40;43.70;;;;;;5042015;28;20987;-44
2022/02/02 16:58:31;;;;;;;23.03;21.73;;;26.60;43.60;;;;;;5042070;28;20451;-44
2022/02/02 17:31:05;;;;;;;23.47;22.27;;;25.50;45.60;;;;;;5038014;28;20455;-44
2022/02/02 17:33:37;;;;;;;23.10;21.90;;;25.40;45.70;;;;;;5041013;28;20984;-45
2022/02/02 17:36:16;;;;;;;24.90;23.57;;;25.40;45.80;;;;;;5040977;28;20448;-43
2022/02/02 17:38:51;;;;;;;24.20;23.10;;;25.30;45.90;;;;;;5040756;28;20451;-44
2022/02/02 17:41:36;;;;;;;23.80;22.50;;;25.20;46.20;;;;;;5040549;28;20729;-46
2022/02/02 17:44:20;;;;;;;23.97;22.70;;;25.20;46.30;;;;;;5040659;28;20452;-44
2022/02/02 18:01:14;;;;;;;23.50;22.30;;;24.70;46.80;;;;;;5017275;28;20459;-44
2022/02/02 18:03:58;;;;;;;23.40;22.20;;;24.70;46.90;;;;;;5040294;28;20593;-48
2022/02/02 18:20:22;;;;;;;23.47;22.27;;;24.30;47.80;;;;;;5040005;28;20788;-44
2022/02/02 18:22:58;;;;;;;23.03;21.73;;;24.20;47.90;;;;;;5040098;28;20468;-46
2022/02/02 18:25:32;;;;;;;23.63;22.33;;;24.20;48.00;;;;;;5039789;28;20447;-44
2022/02/02 18:28:06;;;;;;;23.60;22.33;;;24.10;48.10;;;;;;5039986;28;20488;-47
2022/02/02 18:30:42;;;;;;;23.63;22.33;;;24.10;48.20;;;;;;5039704;28;20633;-46
2022/02/02 18:33:20;;;;;;;22.70;21.50;;;24.00;48.20;;;;;;5025611;28;20462;-50
2022/02/02 18:35:53;;;;;;;23.10;21.93;;;23.90;48.30;;;;;;5039881;28;20923;-43
2022/02/02 18:44:29;;;;;;;23.13;21.93;;;23.80;48.60;;;;;;5021648;28;20519;-44
2022/02/02 18:49:52;;;;;;;23.43;22.20;;;23.50;48.90;;;;;;5019430;28;20476;-44
2022/02/02 18:52:56;;;;;;;22.90;21.80;;;23.40;49.20;;;;;;5019675;28;20468;-44
2022/02/02 18:55:37;;;;;;;22.93;21.63;;;23.30;49.50;;;;;;5027735;28;20875;-44
2022/02/02 18:58:12;;;;;;;24.23;22.93;;;23.20;49.90;;;;;;5039337;28;20939;-44
2022/02/02 19:00:50;;;;;;;23.57;22.37;;;23.00;50.10;;;;;;5039510;28;20455;-43
2022/02/02 19:55:43;;;;;;;32.00;29.30;;;21.80;54.00;;;;;;5042822;28;20815;-48
2022/02/02 20:06:49;;;;;;;31.43;28.70;;;21.60;54.50;;;;;;5035448;28;20437;-48
2022/02/02 20:12:23;;;;;;;30.63;28.10;;;21.50;54.80;;;;;;5097649;27;20589;-45
2022/02/02 20:14:50;;;;;;;30.80;28.40;;;21.50;55.20;;;;;;5097256;28;20442;-45
2022/02/02 20:17:20;;;;;;;29.73;27.43;;;21.50;55.40;;;;;;5094959;28;20445;-47
2022/02/02 20:19:52;;;;;;;30.60;28.60;;;21.50;55.50;;;;;;5076976;28;20454;-47
2022/02/02 20:22:21;;;;;;;28.17;26.07;;;21.40;55.60;;;;;;5076618;28;20470;-46
2022/02/02 20:24:53;;;;;;;28.40;26.30;;;21.30;55.70;;;;;;5077777;28;20867;-48
2022/02/02 20:27:21;;;;;;;27.73;25.77;;;21.30;55.80;;;;;;5075915;28;20565;-45
2022/02/02 20:29:48;;;;;;;26.87;24.93;;;21.30;56.00;;;;;;5076863;28;20439;-46
2022/02/02 20:32:15;;;;;;;26.80;25.00;;;21.30;56.30;;;;;;5076671;28;20490;-49
2022/02/02 20:34:42;;;;;;;27.87;25.57;;;21.30;56.40;;;;;;5076813;28;20446;-45
2022/02/02 20:37:10;;;;;;;26.90;25.03;;;21.30;56.40;;;;;;5076417;28;20446;-46
2022/02/02 20:39:42;;;;;;;27.30;25.60;;;21.30;56.60;;;;;;5056859;28;20544;-43
2022/02/02 20:42:10;;;;;;;28.67;26.60;;;21.20;56.60;;;;;;5060559;28;20828;-45
2022/02/02 20:44:59;;;;;;;26.93;25.20;;;21.20;56.80;;;;;;5056474;28;20921;-44
2022/02/02 21:06:45;;;;;;;24.93;23.73;;;21.00;56.80;;;;;;5067887;28;20916;-43
2022/02/02 21:09:29;;;;;;;25.83;24.13;;;20.90;56.80;;;;;;5067857;28;20478;-43
2022/02/02 21:14:40;;;;;;;25.20;23.80;;;20.80;57.00;;;;;;5087900;28;20547;-48
2022/02/02 21:17:18;;;;;;;24.87;23.40;;;20.80;57.10;;;;;;5070687;28;20458;-49
2022/02/02 21:19:51;;;;;;;25.63;24.23;;;20.70;57.20;;;;;;5067696;28;20439;-44
2022/02/02 21:22:19;;;;;;;24.10;22.77;;;20.70;57.40;;;;;;5061960;28;20468;-47
2022/02/02 21:24:52;;;;;;;25.30;23.80;;;20.70;57.60;;;;;;5054492;28;20488;-45
2022/02/02 21:27:24;;;;;;;25.20;23.80;;;20.60;57.60;;;;;;5054091;28;20456;-48
2022/02/02 21:29:51;;;;;;;24.40;23.10;;;20.50;57.70;;;;;;5054338;28;20475;-45
2022/02/02 21:32:23;;;;;;;25.27;23.70;;;20.50;57.90;;;;;;5054533;28;20484;-46
2022/02/02 21:34:51;;;;;;;24.40;23.07;;;20.50;58.10;;;;;;5054305;28;20535;-44
2022/02/02 21:37:19;;;;;;;24.90;23.47;;;20.50;58.20;;;;;;5053954;28;20452;-42
2022/02/02 21:39:55;;;;;;;25.80;24.20;;;20.40;58.20;;;;;;5054148;28;20535;-46